Silver Peak Trail, Santa Catalina Island Weather observations

Data are for 10 minute period ending at time listed.
 Day   Time   Solar   Ave.   Ave.  Ave.  Vector    Max.   Stn.    Total
  of    of     Rad.   Air    Rel.  Wind   Wind     Wind   Baro.  Precip.
Year   Day            Temp.  Hum.  Speed  Dir.     Gust   Pres.         
2016   (PST)   W/m2    F      %     mph   deg.      mph    mb.     in.  
------------------------------------------------------------------------
 149    0:00    0.0    52   96.2     5    335.2     6.6    999.0   0.00  
 149    0:10    0.0    52   96.2     3    335.7     6.0    999.0   0.00  
 149    0:20    0.0    52   96.2     4    335.1     8.4    999.0   0.00  
 149    0:30    0.0    52   96.2     5    335.1     8.4    999.0   0.00  
 149    0:40    0.0    52   96.3     4    335.9     7.8    999.0   0.00  
 149    0:50    0.0    52   96.3     4    336.0     5.4    999.0   0.00  
 149    1:00    0.0    52   96.3     5    336.2     6.6    999.0   0.00  
 149    1:10    0.0    52   96.3     4    336.2     7.2    999.0   0.00  
 149    1:20    0.0    52   96.3     4    337.2     6.0    999.0   0.00  
 149    1:30    0.0    52   96.3     4    337.3     7.2    999.0   0.00  
 149    1:40    0.0    52   96.3     5      4.3     8.4    999.0   0.00  
 149    1:50    0.0    52   96.4     4     29.5     6.0    999.0   0.00  
 149    2:00    0.0    52   96.3     3     26.7     7.8    999.0   0.00  
 149    2:10    0.0    52   96.4     7      9.0     9.6    999.0   0.00  
 149    2:20    0.0    52   96.4     7      5.3    10.2    999.0   0.00  
 149    2:30    0.0    52   96.4     9      5.4    12.5    999.0   0.00  
 149    2:40    0.0    52   96.4     8      5.2    10.8    999.0   0.00  
 149    2:50    0.0    52   96.4     8      6.5    11.9    999.0   0.00  
 149    3:00    0.0    52   96.4     9      7.7    11.9    999.0   0.00  
 149    3:10    0.0    52   96.5     8      5.5    12.5    999.0   0.00  
 149    3:20    0.0    52   96.4     8      5.5    12.5    999.0   0.00  
 149    3:30    0.0    52   96.5     6      5.1     9.6    999.0   0.00  
 149    3:40    0.0    52   96.5     4      4.9     7.8    999.0   0.00  
 149    3:50    0.0    52   96.5     3      4.8     6.0    999.0   0.00  
 149    4:00    0.0    52   96.5     2      4.7     3.6    999.0   0.00  
 149    4:10    0.0    52   96.5     2      4.7     3.6    999.0   0.00  
 149    4:20    0.0    52   96.5     2      4.7     4.2    999.0   0.00  
 149    4:30    0.0    52   96.5     3      4.7     5.4    999.0   0.00  
 149    4:40    0.0    52   96.5     2      4.7     4.8    999.0   0.00  
 149    4:50    1.0    52   96.5     3      4.7     5.4    999.0   0.00  
 149    5:00    2.0    52   96.5     1      4.7     3.6    999.0   0.00  
 149    5:10    5.0    52   96.5     3      4.7     4.2    999.0   0.00  
 149    5:20    9.0    52   96.5     3      4.7     4.8    999.0   0.00  
 149    5:30   13.0    52   96.5     4      4.8     7.2    999.0   0.00  
 149    5:40   18.0    52   96.5     3      4.8     5.4    999.0   0.00  
 149    5:50   25.0    52   96.5     2      4.7     4.2    999.0   0.00  
 149    6:00   34.0    52   96.5     1      4.7     3.0    999.0   0.00  
 149    6:10   40.0    52   96.5     2      4.7     3.6    999.0   0.00  
 149    6:20   49.0    52   96.5     1      4.7     3.6    999.0   0.00  
 149    6:30   62.0    53   96.6     2      4.7     3.6    999.0   0.00  
 149    6:40   80.0    52   96.5     3      4.7     6.0    999.0   0.00  
 149    6:50  113.0    52   96.5     3      4.6     5.4    999.0   0.00  
 149    7:00  121.0    52   96.5     4      3.9     5.4    999.0   0.00  
 149    7:10  129.0    53   96.5     2      2.3     4.2    999.0   0.00  
 149    7:20  140.0    53   96.5     4      2.3     6.6    999.0   0.00  
 149    7:30  140.0    53   96.5     4      3.0     7.8    999.0   0.00  
 149    7:40  172.0    53   96.5     4      4.7     7.8    999.0   0.00  
 149    7:50  136.0    53   96.5     4      4.7     8.4    999.0   0.00  
 149    8:00  157.0    53   96.5     4      4.7     6.6    999.0   0.00  
 149    8:10  188.0    53   96.5     6      4.8     9.0    999.0   0.00  
 149    8:20  228.0    53   96.5     4      4.7     7.8    999.0   0.00  
 149    8:30  226.0    54   96.5     3      4.5     5.4    999.0   0.00  
 149    8:40  316.0    55   96.5     2      4.5     3.0    999.0   0.00  
 149    8:50  430.0    56   96.3     2      4.5     4.2    999.0   0.00  
 149    9:00  458.0    55   95.8     3      4.4     4.8    999.0   0.00  
 149    9:10  358.0    55   95.9     4     70.6     8.4    999.0   0.00  
 149    9:20  421.0    55   95.8     5    335.0    10.8    999.0   0.00  
 149    9:30  430.0    55   95.8     7    251.1    13.1    999.0   0.00  
 149    9:40  445.0    55   95.7     8    294.9    10.8    999.0   0.00  
 149    9:50  504.0    56   95.9     7    321.3    10.8    999.0   0.00  
 149   10:00  438.0    57   94.7     7    301.9    10.8    999.0   0.00  
 149   10:10  451.0    58   92.4     6    311.4    10.2    999.0   0.00  
 149   10:20  459.0    58   88.2     6    310.0    10.2    999.0   0.00  
 149   10:30  534.0    59   84.6     6    309.7    10.2    999.0   0.00  
 149   10:40  463.0    59   84.8     4    317.5     8.4    999.0   0.00  
 149   10:50  391.0    59   84.7     3    323.1     7.2    999.0   0.00  
 149   11:00  517.0    59   85.3     5    320.3    10.2    999.0   0.00  
 149   11:10  413.0    59   84.7     4      0.5     9.6    999.0   0.00  
 149   11:20  427.0    58   87.0     4      4.3     6.0    999.0   0.00  
 149   11:30  449.0    58   86.5     5      4.6     7.8    999.0   0.00  
 149   11:40  445.0    57   89.3     3      4.5     5.4    999.0   0.00  
 149   11:50  618.0    58   87.8     4      4.4     5.4    999.0   0.00  
 149   12:00  608.0    59   85.1     4      4.5     6.6    999.0   0.00  
 149   12:10  758.0    60   83.4     4      4.4     6.0    999.0   0.00  
 149   12:20  999.0    62   80.8     5    350.0     9.0    999.0   0.00  
 149   12:30  999.0    62   79.2     5    325.5    11.3    999.0   0.00  
 149   12:40  464.0    62   78.8     4    356.7     9.0    999.0   0.00  
 149   12:50  508.0    60   81.6     5      3.8     7.8    999.0   0.00  
 149   13:00  463.0    61   81.3     6      4.7     9.0    999.0   0.00  
 149   13:10  493.0    60   80.9     7      4.8     9.6    999.0   0.00  
 149   13:20  465.0    59   82.9     8      4.8    11.3    999.0   0.00  
 149   13:30  421.0    60   82.5     9      4.9    11.9    999.0   0.00  
 149   13:40  449.0    59   83.8    11      5.2    12.5    999.0   0.00  
 149   13:50  454.0    58   84.2    11      8.7    13.7    999.0   0.00  
 149   14:00  507.0    58   85.5    12     13.3    15.5    999.0   0.00  
 149   14:10  464.0    58   86.6    13     13.5    16.7    999.0   0.00  
 149   14:20  411.0    58   85.5    12     14.0    15.5    999.0   0.00  
 149   14:30  457.0    58   85.2    12     13.3    14.9    999.0   0.00  
 149   14:40  459.0    58   85.0    13     13.8    16.1    999.0   0.00  
 149   14:50  460.0    57   86.7    13     13.3    17.3    999.0   0.00  
 149   15:00  587.0    57   86.4    10     12.8    13.7    999.0   0.00  
 149   15:10  526.0    58   86.2    10     13.1    14.9    999.0   0.00  
 149   15:20  455.0    58   84.4    10     12.0    14.9    999.0   0.00  
 149   15:30  514.0    58   86.0    12     13.1    16.1    999.0   0.00  
 149   15:40  520.0    58   85.5    13     13.8    16.1    999.0   0.00  
 149   15:50  398.0    56   88.4    13     15.3    16.1    999.0   0.00  
 149   16:00  335.0    56   87.9    13     14.2    16.1    999.0   0.00  
 149   16:10  363.0    55   89.9    12     13.4    15.5    999.0   0.00  
 149   16:20  279.0    56   89.3    13     13.7    16.1    999.0   0.00  
 149   16:30  232.0    55   89.0    14     14.4    17.3    999.0   0.00  
 149   16:40  225.0    54   90.6    14     13.9    17.3    999.0   0.00  
 149   16:50  174.0    54   91.3    15     14.1    18.5    999.0   0.00  
 149   17:00  181.0    54   91.5    14     14.4    18.5    999.0   0.00  
 149   17:10  140.0    53   92.0    14     13.8    17.3    999.0   0.00  
 149   17:20  132.0    53   92.6    13     13.6    16.1    999.0   0.00  
 149   17:30  101.0    52   92.8    12     13.8    15.5    999.0   0.00  
 149   17:40   85.0    52   93.1    12     13.9    15.5    999.0   0.00  
 149   17:50   69.0    52   93.3    11     13.1    14.9    999.0   0.00  
 149   18:00   59.0    52   93.3    11     12.7    14.3    999.0   0.00  
 149   18:10   52.0    52   93.6    10     12.9    13.1    999.0   0.00  
 149   18:20   37.0    52   93.7     9     12.5    13.1    999.0   0.00  
 149   18:30   27.0    52   93.8     8     12.3    10.2    999.0   0.00  
 149   18:40   17.0    52   94.0     9     12.4    13.1    999.0   0.00  
 149   18:50   10.0    52   93.9    10     12.8    12.5    999.0   0.00  
 149   19:00    4.0    52   94.2    10     12.3    12.5    999.0   0.00  
 149   19:10    2.0    51   94.6     9     12.4    11.9    999.0   0.00  
 149   19:20    0.0    51   94.8     9     12.5    12.5    999.0   0.00  
 149   19:30    0.0    51   94.9     7     12.0     9.0    999.0   0.00  
 149   19:40    0.0    51   95.1     8     12.2    10.2    999.0   0.00  
 149   19:50    0.0    51   95.3     7     11.8    10.2    999.0   0.00  
 149   20:00    0.0    51   95.5     5     11.8     7.2    999.0   0.00  
 149   20:10    0.0    51   95.6     7     12.2    10.2    999.0   0.00  
 149   20:20    0.0    51   95.7     8     12.0     9.6    999.0   0.00  
 149   20:30    0.0    51   95.7     6     12.2     9.6    999.0   0.00  
 149   20:40    0.0    51   95.8     5     11.8     6.6    999.0   0.00  
 149   20:50    0.0    51   95.9     4     11.8     6.0    999.0   0.00  
 149   21:00    0.0    51   96.0     4     11.6     5.4    999.0   0.00  
 149   21:10    0.0    51   96.0     5     11.5     6.6    999.0   0.00  
 149   21:20    0.0    51   96.0     5     11.7     6.6    999.0   0.00  
 149   21:30    0.0    51   96.0     5     11.7     6.6    999.0   0.00  
 149   21:40    0.0    51   96.1     3     11.7     4.8    999.0   0.00  
 149   21:50    0.0    51   96.1     2     11.6     4.8    999.0   0.00  
 149   22:00    0.0    52   96.1     2     11.5     3.6    999.0   0.00  
 149   22:10    0.0    52   96.1     2     11.4     6.0    999.0   0.00  
 149   22:20    0.0    52   96.1     3     11.3     6.0    999.0   0.00  
 149   22:30    0.0    52   96.1     2     11.4     3.6    999.0   0.00  
 149   22:40    0.0    51   96.1     4     11.4     6.0    999.0   0.00  
 149   22:50    0.0    51   96.1     3     11.5     4.8    999.0   0.00  
 149   23:00    0.0    51   96.2     4     11.5     5.4    999.0   0.00  
 149   23:10    0.0    51   96.2     4     11.5     5.4    999.0   0.00  
 149   23:20    0.0    51   96.2     3     11.5     4.8    999.0   0.00  
 149   23:30    0.0    52   96.2     3     11.3     6.6    999.0   0.00  
 149   23:40    0.0    52   96.3     3     11.1     5.4    999.0   0.00  
 149   23:50    0.0    52   96.3     3    324.2     6.6    999.0   0.00  

Return to Silver Peak Trail graphs page.


Western Regional Climate Center,wrcc@dri.edu